createdAt,value
2022-09-05T00:00:14.601Z,96.10
2022-09-05T00:03:05.731Z,96.30
2022-09-05T00:05:42.801Z,96.20
2022-09-05T00:08:35.011Z,96.60
2022-09-05T00:11:41.393Z,96.90
2022-09-05T00:15:17.537Z,96.40
2022-09-05T00:18:45.496Z,96.60
2022-09-05T00:24:25.378Z,96.60
2022-09-05T00:24:34.606Z,96.80
2022-09-05T00:27:01.467Z,96.60
2022-09-05T00:30:23.523Z,96.80
2022-09-05T00:32:24.135Z,96.80
2022-09-05T00:35:09.312Z,96.90
2022-09-05T00:37:41.378Z,97.10
2022-09-05T00:40:18.415Z,97.00
2022-09-05T00:42:49.262Z,97.10
2022-09-05T00:45:37.453Z,97.10
2022-09-05T00:48:22.989Z,96.90
2022-09-05T00:51:20.971Z,97.00
2022-09-05T00:54:28.399Z,97.30
2022-09-05T00:57:16.317Z,97.30
2022-09-05T01:00:05.504Z,97.30
2022-09-05T01:03:10.243Z,97.30
2022-09-05T01:06:06.421Z,97.40
2022-09-05T01:09:07.671Z,97.50
2022-09-05T01:12:07.265Z,97.70
2022-09-05T01:14:52.891Z,97.70
2022-09-05T01:17:37.151Z,97.50
2022-09-05T01:20:31.287Z,97.40
2022-09-05T01:23:27.658Z,97.70
2022-09-05T01:26:21.099Z,97.80
2022-09-05T01:29:18.697Z,97.80
2022-09-05T01:32:16.439Z,97.70
2022-09-05T01:34:59.529Z,98.30
2022-09-05T01:37:38.499Z,98.00
2022-09-05T01:40:30.161Z,98.10
2022-09-05T01:43:30.874Z,97.90
2022-09-05T01:46:38.274Z,98.00
2022-09-05T01:49:14.157Z,98.20
2022-09-05T01:51:54.686Z,98.40
2022-09-05T01:54:48.747Z,98.30
2022-09-05T01:57:35.648Z,98.20
2022-09-05T02:00:05.681Z,98.30
2022-09-05T02:03:03.238Z,98.30
2022-09-05T02:06:03.327Z,98.60
2022-09-05T02:09:11.989Z,98.30
2022-09-05T02:11:59.717Z,98.60
2022-09-05T02:14:51.739Z,98.70
2022-09-05T02:17:50.696Z,98.50
2022-09-05T02:20:26.946Z,98.50
2022-09-05T02:22:56.581Z,98.50
2022-09-05T02:26:03.409Z,98.50
2022-09-05T02:28:43.682Z,99.30
2022-09-05T02:31:27.862Z,98.60
2022-09-05T02:34:18.065Z,98.70
2022-09-05T02:37:08.589Z,98.60
2022-09-05T02:45:10.436Z,98.80
2022-09-05T02:45:21.004Z,98.80
2022-09-05T02:46:25.807Z,99.40
2022-09-05T02:49:24.584Z,99.00
2022-09-05T02:57:25.370Z,99.10
2022-09-05T02:57:36.861Z,99.10
2022-09-05T02:58:17.382Z,99.10
2022-09-05T03:01:11.697Z,99.20
2022-09-05T03:04:11.055Z,99.50
2022-09-05T03:07:08.961Z,99.20
2022-09-05T03:09:35.800Z,99.30
2022-09-05T03:12:32.998Z,99.50
2022-09-05T03:15:22.802Z,99.60
2022-09-05T03:18:20.883Z,99.30
2022-09-05T03:21:18.610Z,99.30
2022-09-05T03:24:23.103Z,99.30
2022-09-05T03:27:23.648Z,99.40
2022-09-05T03:30:17.587Z,99.60
2022-09-05T03:33:50.385Z,99.70
2022-09-05T03:36:45.505Z,99.90
2022-09-05T03:39:38.860Z,99.90
2022-09-05T03:42:36.076Z,99.90
2022-09-05T03:45:14.819Z,99.90
2022-09-05T03:48:02.256Z,99.90
2022-09-05T03:57:05.271Z,99.90
2022-09-05T03:57:17.192Z,99.90
2022-09-05T03:57:17.194Z,99.90
2022-09-05T04:00:09.672Z,99.90
2022-09-05T04:08:08.589Z,99.90
2022-09-05T04:08:26.703Z,99.90
2022-09-05T04:08:57.170Z,99.90
2022-09-05T04:11:35.623Z,99.90
2022-09-05T04:14:38.649Z,99.90
2022-09-05T04:17:20.762Z,99.90
2022-09-05T04:19:55.121Z,99.90
2022-09-05T04:22:33.128Z,99.90
2022-09-05T04:25:20.197Z,99.90
2022-09-05T04:28:05.134Z,99.90
2022-09-05T04:30:46.724Z,99.90
2022-09-05T04:33:36.831Z,99.90
2022-09-05T04:36:19.063Z,99.90
2022-09-05T04:39:05.211Z,99.90
2022-09-05T04:41:40.343Z,99.90
2022-09-05T04:44:15.652Z,99.90
2022-09-05T04:46:56.001Z,99.90
2022-09-05T04:49:29.143Z,99.90
2022-09-05T04:52:32.278Z,99.90
2022-09-05T04:55:10.609Z,99.90
2022-09-05T04:57:45.239Z,99.90
2022-09-05T05:05:59.261Z,99.90
2022-09-05T05:06:09.582Z,99.90
2022-09-05T05:06:45.486Z,99.90
2022-09-05T05:17:55.976Z,99.90
2022-09-05T05:21:10.400Z,99.90
2022-09-05T05:24:05.072Z,99.90
2022-09-05T05:26:49.262Z,99.90
2022-09-05T05:29:45.958Z,99.90
2022-09-05T05:32:46.165Z,99.90
2022-09-05T05:35:15.428Z,99.90
2022-09-05T05:37:51.342Z,99.90
2022-09-05T05:40:28.673Z,99.90
2022-09-05T05:43:19.762Z,99.90
2022-09-05T05:45:47.102Z,99.90
2022-09-05T05:48:20.169Z,99.90
2022-09-05T05:51:17.258Z,99.90
2022-09-05T05:53:57.233Z,99.90
2022-09-05T05:57:10.130Z,99.90
2022-09-05T06:00:15.648Z,99.90
2022-09-05T06:03:26.824Z,99.90
2022-09-05T06:06:22.088Z,99.90
2022-09-05T06:14:49.504Z,99.90
2022-09-05T06:14:58.128Z,99.90
2022-09-05T06:15:34.533Z,99.90
2022-09-05T06:18:45.759Z,99.90
2022-09-05T06:22:11.119Z,99.90
2022-09-05T06:25:11.061Z,99.90
2022-09-05T06:28:17.814Z,99.90
2022-09-05T06:31:30.696Z,99.90
2022-09-05T06:34:30.894Z,99.90
2022-09-05T06:37:50.981Z,99.90
2022-09-05T06:40:36.522Z,99.90
2022-09-05T06:43:22.061Z,99.90
2022-09-05T06:46:43.798Z,99.90
2022-09-05T06:49:30.341Z,99.90
2022-09-05T06:52:43.262Z,99.90
2022-09-05T06:55:21.479Z,99.90
2022-09-05T06:58:16.396Z,99.90
2022-09-05T07:00:48.590Z,99.90
2022-09-05T07:03:40.633Z,99.90
2022-09-05T07:06:19.301Z,99.90
2022-09-05T07:09:14.296Z,99.90
2022-09-05T07:12:30.258Z,99.90
2022-09-05T07:15:22.454Z,99.90
2022-09-05T07:18:13.569Z,99.90
2022-09-05T07:21:15.767Z,99.90
2022-09-05T07:24:08.814Z,99.90
2022-09-05T07:26:51.598Z,99.90
2022-09-05T07:29:31.869Z,99.90
2022-09-05T07:32:03.436Z,99.90
2022-09-05T07:34:33.012Z,99.90
2022-09-05T07:37:17.510Z,99.90
2022-09-05T07:39:56.143Z,99.90
2022-09-05T07:42:33.494Z,99.90
2022-09-05T07:45:08.532Z,99.90
2022-09-05T07:47:42.817Z,99.90
2022-09-05T07:52:47.404Z,99.90
2022-09-05T07:56:54.032Z,99.90
2022-09-05T07:57:04.917Z,99.90
2022-09-05T07:58:51.808Z,99.90
2022-09-05T08:01:22.582Z,99.90
2022-09-05T08:03:56.068Z,99.90
2022-09-05T08:06:35.910Z,99.90
2022-09-05T08:10:07.014Z,99.90
2022-09-05T08:12:18.595Z,99.40
2022-09-05T08:15:16.437Z,98.90
2022-09-05T08:18:03.917Z,98.00
2022-09-05T08:20:37.908Z,97.50
2022-09-05T08:23:29.596Z,96.90
2022-09-05T08:26:35.835Z,95.80
2022-09-05T08:29:11.247Z,95.90
2022-09-05T08:31:40.928Z,95.50
2022-09-05T08:34:18.496Z,96.00
2022-09-05T08:36:56.914Z,94.20
2022-09-05T08:39:27.043Z,94.40
2022-09-05T08:42:31.648Z,93.40
2022-09-05T08:46:42.011Z,92.80
2022-09-05T08:48:12.107Z,92.90
2022-09-05T08:51:09.376Z,93.40
2022-09-05T08:53:50.615Z,92.90
2022-09-05T08:56:40.566Z,92.90
2022-09-05T08:59:32.819Z,92.40
2022-09-05T09:02:46.460Z,92.30
2022-09-05T09:06:14.457Z,91.40
2022-09-05T09:09:10.590Z,91.60
2022-09-05T09:11:40.597Z,91.80
2022-09-05T09:14:41.529Z,93.10
2022-09-05T09:17:20.730Z,92.70
2022-09-05T09:20:09.930Z,92.50
2022-09-05T09:22:36.796Z,91.80
2022-09-05T09:25:17.825Z,90.90
2022-09-05T09:28:47.550Z,90.90
2022-09-05T09:30:54.510Z,90.60
2022-09-05T09:33:36.875Z,88.40
2022-09-05T09:36:40.486Z,88.40
2022-09-05T09:39:38.384Z,88.80
2022-09-05T09:42:10.124Z,89.10
2022-09-05T09:45:22.432Z,88.20
2022-09-05T09:48:28.181Z,88.40
2022-09-05T09:51:13.911Z,89.10
2022-09-05T09:54:03.138Z,87.00
2022-09-05T09:56:39.831Z,86.80
2022-09-05T09:59:18.538Z,86.20
2022-09-05T10:03:47.068Z,86.50
2022-09-05T10:10:40.053Z,88.60
2022-09-05T10:10:55.366Z,88.70
2022-09-05T10:11:54.138Z,89.30
2022-09-05T10:15:30.579Z,90.10
2022-09-05T10:18:05.681Z,91.40
2022-09-05T10:21:16.019Z,91.40
2022-09-05T10:24:15.658Z,91.80
2022-09-05T10:27:13.054Z,92.00
2022-09-05T10:29:52.662Z,91.90
2022-09-05T10:35:11.616Z,92.80
2022-09-05T10:35:34.707Z,92.40
2022-09-05T10:38:14.252Z,92.40
2022-09-05T10:41:14.640Z,93.10
2022-09-05T10:43:38.908Z,93.00
2022-09-05T10:46:08.475Z,93.30
2022-09-05T10:48:56.307Z,91.90
2022-09-05T10:51:37.804Z,92.60
2022-09-05T10:54:41.683Z,92.30
2022-09-05T10:57:08.450Z,93.10
2022-09-05T11:02:16.413Z,92.80
2022-09-05T11:02:48.137Z,93.40
2022-09-05T11:05:25.422Z,92.90
2022-09-05T11:08:18.276Z,92.80
2022-09-05T11:11:25.951Z,92.50
2022-09-05T11:14:27.063Z,92.40
2022-09-05T11:17:04.261Z,92.70
2022-09-05T11:19:55.967Z,92.90
2022-09-05T11:22:28.938Z,93.00
2022-09-05T11:24:59.678Z,94.50
2022-09-05T11:27:30.364Z,93.30
2022-09-05T11:30:07.018Z,93.50
2022-09-05T11:39:46.713Z,93.30
2022-09-05T11:40:03.913Z,93.90
2022-09-05T11:40:06.718Z,93.60
2022-09-05T11:42:09.124Z,93.70
2022-09-05T11:45:01.576Z,93.90
2022-09-05T11:47:56.896Z,93.80
2022-09-05T11:50:47.672Z,94.70
2022-09-05T11:53:26.445Z,94.80
2022-09-05T11:56:03.616Z,94.30
2022-09-05T11:58:51.218Z,96.80
2022-09-05T12:01:44.167Z,95.10
2022-09-05T12:04:39.262Z,93.70
2022-09-05T12:07:31.935Z,93.50
2022-09-05T12:10:43.492Z,93.40
2022-09-05T12:13:26.503Z,96.00
2022-09-05T12:16:08.175Z,94.20
2022-09-05T12:19:19.303Z,94.10
2022-09-05T12:22:09.037Z,94.00
2022-09-05T12:27:35.454Z,94.40
2022-09-05T12:29:25.878Z,93.80
2022-09-05T12:32:30.475Z,94.00
2022-09-05T12:36:12.297Z,94.40
2022-09-05T12:40:56.745Z,93.80
2022-09-05T12:41:36.953Z,94.00
2022-09-05T12:44:36.272Z,94.80
2022-09-05T12:46:16.260Z,94.40
2022-09-05T12:49:07.254Z,95.50
2022-09-05T12:51:45.785Z,94.00
2022-09-05T12:54:33.798Z,94.20
2022-09-05T13:00:05.561Z,93.80
2022-09-05T13:03:02.751Z,93.40
2022-09-05T13:03:28.291Z,93.30
2022-09-05T13:06:19.386Z,93.90
2022-09-05T13:09:00.819Z,93.30
2022-09-05T13:14:53.363Z,95.50
2022-09-05T13:14:59.080Z,94.20
2022-09-05T13:17:14.200Z,94.90
2022-09-05T13:19:45.709Z,94.10
2022-09-05T13:22:16.493Z,93.40
2022-09-05T13:24:46.054Z,96.40
2022-09-05T13:27:30.121Z,93.60
2022-09-05T13:32:46.976Z,92.90
2022-09-05T13:38:05.483Z,93.10
2022-09-05T13:38:13.925Z,93.90
2022-09-05T13:39:06.351Z,93.00
2022-09-05T13:41:44.010Z,95.70
2022-09-05T13:44:26.266Z,93.10
2022-09-05T13:46:59.144Z,93.40
2022-09-05T13:49:34.362Z,93.40
2022-09-05T13:52:16.925Z,94.10
2022-09-05T13:54:53.526Z,93.90
2022-09-05T13:57:32.395Z,92.90
2022-09-05T14:00:08.821Z,93.10
2022-09-05T14:03:35.968Z,93.00
2022-09-05T14:06:47.858Z,93.50
2022-09-05T14:09:57.911Z,93.20
2022-09-05T14:12:39.848Z,92.90
2022-09-05T14:15:25.288Z,93.40
2022-09-05T14:17:59.628Z,90.90
2022-09-05T14:21:10.418Z,91.50
2022-09-05T14:24:10.153Z,91.80
2022-09-05T14:26:50.093Z,91.70
2022-09-05T14:29:21.972Z,91.40
2022-09-05T14:37:34.617Z,92.30
2022-09-05T14:37:52.814Z,92.20
2022-09-05T14:39:02.723Z,93.60
2022-09-05T14:42:07.465Z,92.70
2022-09-05T14:44:57.987Z,93.30
2022-09-05T14:48:20.740Z,93.40
2022-09-05T14:51:08.400Z,94.40
2022-09-05T14:53:59.747Z,93.50
2022-09-05T15:00:41.610Z,95.00
2022-09-05T15:02:46.047Z,93.90
2022-09-05T15:03:00.708Z,94.20
2022-09-05T15:05:28.772Z,93.90
2022-09-05T15:08:42.561Z,93.90
2022-09-05T15:12:21.670Z,94.30
2022-09-05T15:14:06.422Z,94.40
2022-09-05T15:16:38.587Z,94.60
2022-09-05T15:19:11.112Z,94.40
2022-09-05T15:21:41.438Z,94.10
2022-09-05T15:24:22.873Z,90.70
2022-09-05T15:26:54.127Z,87.70
2022-09-05T15:29:25.357Z,89.50
2022-09-05T15:32:11.447Z,90.70
2022-09-05T15:34:39.285Z,91.60
2022-09-05T15:37:31.258Z,91.80
2022-09-05T15:40:22.590Z,91.50
2022-09-05T15:43:02.289Z,90.60
2022-09-05T15:45:37.969Z,90.50
2022-09-05T15:48:14.767Z,90.10
2022-09-05T15:50:52.172Z,89.30
2022-09-05T15:53:28.934Z,90.10
2022-09-05T15:56:14.338Z,90.30
2022-09-05T15:58:53.671Z,90.90
2022-09-05T16:01:59.279Z,91.20
2022-09-05T16:07:57.116Z,91.10
2022-09-05T16:10:46.859Z,92.60
2022-09-05T16:10:50.787Z,92.20
2022-09-05T16:13:17.314Z,92.60
2022-09-05T16:21:17.688Z,92.40
2022-09-05T16:23:26.986Z,94.00
2022-09-05T16:23:32.675Z,93.50
2022-09-05T16:24:58.309Z,93.00
2022-09-05T16:27:44.333Z,94.00
2022-09-05T16:30:19.621Z,93.80
2022-09-05T16:32:53.305Z,94.80
2022-09-05T16:35:24.997Z,93.90
2022-09-05T16:38:09.481Z,94.70
2022-09-05T16:40:43.086Z,93.50
2022-09-05T16:43:22.255Z,94.40
2022-09-05T16:46:27.154Z,94.20
2022-09-05T16:48:54.984Z,94.80
2022-09-05T16:51:40.901Z,94.50
2022-09-05T16:54:31.239Z,94.90
2022-09-05T16:57:09.928Z,93.90
2022-09-05T16:59:41.071Z,93.80
2022-09-05T17:02:14.781Z,94.20
2022-09-05T17:05:10.709Z,93.90
2022-09-05T17:07:55.714Z,94.20
2022-09-05T17:10:30.751Z,95.00
2022-09-05T17:13:01.848Z,94.20
2022-09-05T17:15:35.370Z,94.50
2022-09-05T17:18:22.677Z,94.10
2022-09-05T17:20:55.659Z,95.50
2022-09-05T17:29:19.598Z,94.60
2022-09-05T17:29:45.582Z,94.60
2022-09-05T17:32:43.648Z,95.00
2022-09-05T17:35:22.119Z,94.80
2022-09-05T17:38:16.266Z,95.40
2022-09-05T17:40:59.362Z,94.80
2022-09-05T17:43:33.938Z,95.10
2022-09-05T17:46:22.630Z,94.50
2022-09-05T17:49:06.067Z,95.00
2022-09-05T17:51:38.180Z,95.30
2022-09-05T17:54:07.759Z,95.30
2022-09-05T17:56:47.503Z,95.60
2022-09-05T17:59:17.445Z,95.40
2022-09-05T18:02:07.063Z,95.00
2022-09-05T18:04:42.881Z,95.20
2022-09-05T18:07:29.242Z,95.40
2022-09-05T18:10:15.669Z,94.70
2022-09-05T18:13:32.471Z,95.20
2022-09-05T18:16:02.756Z,95.70
2022-09-05T18:19:28.687Z,95.00
2022-09-05T18:21:25.801Z,94.60
2022-09-05T18:24:07.869Z,95.10
2022-09-05T18:26:43.788Z,95.30
2022-09-05T18:29:57.249Z,94.50
2022-09-05T18:32:37.830Z,94.50
2022-09-05T18:35:26.647Z,94.80
2022-09-05T18:38:06.309Z,94.70
2022-09-05T18:40:53.713Z,94.70
2022-09-05T18:44:12.317Z,94.70
2022-09-05T18:46:54.812Z,94.70
2022-09-05T18:50:23.358Z,94.80
2022-09-05T18:52:24.434Z,95.10
2022-09-05T18:56:11.390Z,96.10
2022-09-05T18:58:22.205Z,95.30
2022-09-05T19:00:55.562Z,94.80
2022-09-05T19:03:32.110Z,95.40
2022-09-05T19:06:36.524Z,95.00
2022-09-05T19:09:04.741Z,95.00
2022-09-05T19:11:57.707Z,94.90
2022-09-05T19:14:49.443Z,95.00
2022-09-05T19:17:47.033Z,95.60
2022-09-05T19:20:31.422Z,95.10
2022-09-05T19:23:12.857Z,95.10
2022-09-05T19:25:44.908Z,95.10
2022-09-05T19:36:22.913Z,94.70
2022-09-05T19:36:53.752Z,95.10
2022-09-05T19:37:03.293Z,95.20
2022-09-05T19:37:29.752Z,94.80
2022-09-05T19:40:06.478Z,95.30
2022-09-05T19:47:33.798Z,95.60
2022-09-05T19:47:52.051Z,95.60
2022-09-05T19:48:35.801Z,95.70
2022-09-05T19:51:16.774Z,95.10
2022-09-05T19:54:04.665Z,95.40
2022-09-05T19:56:44.398Z,95.30
2022-09-05T19:59:27.035Z,95.80
2022-09-05T20:02:03.043Z,95.60
2022-09-05T20:04:43.992Z,95.60
2022-09-05T20:07:17.349Z,95.80
2022-09-05T20:09:47.121Z,95.40
2022-09-05T20:12:23.982Z,95.10
2022-09-05T20:14:51.736Z,94.90
2022-09-05T20:17:22.162Z,95.20
2022-09-05T20:20:03.067Z,95.10
2022-09-05T20:22:49.136Z,94.80
2022-09-05T20:25:41.973Z,95.30
2022-09-05T20:28:18.225Z,95.00
2022-09-05T20:30:48.741Z,95.20
2022-09-05T20:33:28.451Z,94.80
2022-09-05T20:40:11.864Z,94.70
2022-09-05T20:43:18.674Z,94.70
2022-09-05T20:43:31.633Z,94.70
2022-09-05T20:44:48.704Z,94.90
2022-09-05T20:52:08.841Z,94.70
2022-09-05T20:54:09.987Z,94.50
2022-09-05T20:54:19.754Z,94.50
2022-09-05T20:56:01.737Z,94.50
2022-09-05T20:58:31.393Z,94.70
2022-09-05T21:01:22.942Z,94.40
2022-09-05T21:04:00.526Z,94.50
2022-09-05T21:06:36.666Z,94.20
2022-09-05T21:09:25.457Z,94.30
2022-09-05T21:11:58.856Z,94.30
2022-09-05T21:14:28.878Z,94.20
2022-09-05T21:17:01.288Z,94.20
2022-09-05T21:19:54.449Z,94.30
2022-09-05T21:22:21.722Z,94.50
2022-09-05T21:25:07.694Z,94.20
2022-09-05T21:27:37.060Z,94.40
2022-09-05T21:30:30.799Z,94.20
2022-09-05T21:33:06.256Z,94.20
2022-09-05T21:35:43.917Z,94.10
2022-09-05T21:38:16.325Z,94.60
2022-09-05T21:41:03.474Z,94.30
2022-09-05T21:47:35.345Z,94.30
2022-09-05T21:47:47.587Z,93.90
2022-09-05T21:49:11.476Z,94.20
2022-09-05T21:51:38.720Z,93.90
2022-09-05T21:59:29.612Z,94.20
2022-09-05T21:59:33.069Z,93.90
2022-09-05T22:00:10.674Z,94.00
2022-09-05T22:02:46.826Z,93.60
2022-09-05T22:05:16.748Z,93.90
2022-09-05T22:07:43.703Z,93.80
2022-09-05T22:10:10.670Z,93.70
2022-09-05T22:12:40.379Z,93.50
2022-09-05T22:15:27.857Z,93.40
2022-09-05T22:18:17.226Z,93.70
2022-09-05T22:20:51.815Z,93.60
2022-09-05T22:23:36.668Z,93.10
2022-09-05T22:26:07.016Z,93.40
2022-09-05T22:28:38.322Z,92.90
2022-09-05T22:31:08.178Z,92.70
2022-09-05T22:33:36.016Z,92.70
2022-09-05T22:36:03.535Z,92.60
2022-09-05T22:38:33.324Z,92.90
2022-09-05T22:41:00.290Z,92.90
2022-09-05T22:43:27.296Z,92.60
2022-09-05T22:45:57.499Z,92.90
2022-09-05T22:48:26.704Z,92.80
2022-09-05T22:50:53.999Z,92.60
2022-09-05T22:53:23.542Z,92.60
2022-09-05T22:56:00.509Z,92.20
2022-09-05T22:58:32.455Z,92.20
2022-09-05T23:01:01.846Z,92.20
2022-09-05T23:03:33.586Z,92.50
2022-09-05T23:06:09.383Z,92.00
2022-09-05T23:08:38.835Z,91.90
2022-09-05T23:11:26.006Z,91.90
2022-09-05T23:13:55.274Z,92.00
2022-09-05T23:16:22.160Z,91.90
2022-09-05T23:18:55.631Z,91.80
2022-09-05T23:21:27.600Z,91.50
2022-09-05T23:23:59.113Z,91.50
2022-09-05T23:26:31.188Z,92.00
2022-09-05T23:28:57.955Z,91.70
2022-09-05T23:31:24.770Z,92.00
2022-09-05T23:33:57.915Z,91.60
2022-09-05T23:36:24.999Z,91.50
2022-09-05T23:38:54.350Z,91.30
2022-09-05T23:41:21.341Z,91.40
2022-09-05T23:43:50.366Z,91.20
2022-09-05T23:46:17.214Z,91.60
2022-09-05T23:48:46.318Z,91.40
2022-09-05T23:51:13.682Z,91.40
2022-09-05T23:53:41.347Z,91.70
2022-09-05T23:56:09.908Z,91.10
2022-09-05T23:58:37.449Z,91.50
